Time;durP1;ratioP1;P1;durP2;ratioP2;P2;SDS_P1;SDS_P2;PMS_P1;PMS_P2;Temp;Humidity;BMP_temperature;BMP_pressure;BME280_temperature;BME280_humidity;BME280_pressure;Samples;Min_cycle;Max_cycle;Signal;HPM_P1;HPM_P2
2022/06/10 00:00:23;;;;;;;2.60;2.40;;;16.60;99.90;;;;;;5072853;28;20210;-68
2022/06/10 00:02:48;;;;;;;2.50;2.40;;;16.50;99.90;;;;;;5074951;28;20215;-69
2022/06/10 00:05:19;;;;;;;2.20;2.00;;;16.50;99.90;;;;;;5104749;28;20995;-69
2022/06/10 00:07:46;;;;;;;2.67;2.10;;;16.50;99.90;;;;;;5055428;28;20587;-69
2022/06/10 00:10:14;;;;;;;2.77;2.27;;;16.50;99.90;;;;;;5086883;28;20456;-68
2022/06/10 00:12:40;;;;;;;2.57;2.37;;;16.50;99.90;;;;;;5053091;28;20454;-69
2022/06/10 00:15:07;;;;;;;2.50;2.30;;;16.50;99.90;;;;;;5070488;28;20457;-68
2022/06/10 00:17:33;;;;;;;3.50;2.43;;;16.50;99.90;;;;;;5088163;28;20455;-70
2022/06/10 00:19:59;;;;;;;3.97;2.40;;;16.40;99.90;;;;;;5082359;28;20464;-69
2022/06/10 00:22:25;;;;;;;2.60;2.40;;;16.40;99.90;;;;;;5077240;28;21177;-69
2022/06/10 00:24:51;;;;;;;4.50;2.47;;;16.40;99.90;;;;;;5064527;28;20672;-69
2022/06/10 00:27:18;;;;;;;4.17;2.80;;;16.40;99.90;;;;;;5057239;28;20475;-69
2022/06/10 00:29:45;;;;;;;2.70;2.50;;;16.40;99.90;;;;;;5059601;28;20207;-67
2022/06/10 00:32:10;;;;;;;2.57;2.17;;;16.40;99.90;;;;;;5077974;28;20449;-70
2022/06/10 00:34:36;;;;;;;4.53;1.90;;;16.30;99.90;;;;;;5063555;28;20541;-68
2022/06/10 00:37:04;;;;;;;2.57;2.40;;;16.30;99.90;;;;;;5059921;28;20223;-68
2022/06/10 00:39:30;;;;;;;3.37;3.07;;;16.30;99.90;;;;;;5063220;28;20284;-69
2022/06/10 00:41:58;;;;;;;7.20;2.10;;;16.30;99.90;;;;;;5075368;28;20514;-69
2022/06/10 00:44:41;;;;;;;2.90;2.30;;;16.20;99.90;;;;;;5078150;28;20540;-68
2022/06/10 00:47:17;;;;;;;3.00;2.47;;;16.20;99.90;;;;;;5070002;28;20445;-68
2022/06/10 00:50:06;;;;;;;2.40;2.20;;;16.10;99.90;;;;;;5080881;28;20460;-67
2022/06/10 00:52:39;;;;;;;2.07;1.93;;;15.90;99.90;;;;;;5079627;28;20891;-68
2022/06/10 00:55:06;;;;;;;3.07;2.50;;;15.90;99.90;;;;;;5052360;28;20533;-68
2022/06/10 00:57:45;;;;;;;3.03;2.33;;;15.90;99.90;;;;;;5090688;28;20448;-69
2022/06/10 01:00:15;;;;;;;2.80;2.60;;;15.90;99.90;;;;;;5086483;28;20449;-68
2022/06/10 01:02:42;;;;;;;2.60;2.40;;;16.00;99.90;;;;;;5076768;28;20533;-69
2022/06/10 01:05:16;;;;;;;3.67;2.50;;;16.00;99.90;;;;;;5053277;28;20797;-68
2022/06/10 01:07:49;;;;;;;2.43;1.97;;;15.90;99.90;;;;;;5066904;28;20540;-68
2022/06/10 01:10:18;;;;;;;3.93;2.07;;;15.90;99.90;;;;;;5077004;28;20541;-69
2022/06/10 01:13:12;;;;;;;2.67;2.47;;;15.90;99.90;;;;;;5070834;28;20460;-68
2022/06/10 01:16:05;;;;;;;4.77;2.57;;;15.90;99.90;;;;;;5069101;28;20476;-68
2022/06/10 01:18:31;;;;;;;3.77;2.73;;;15.80;99.90;;;;;;5076161;28;20514;-69
2022/06/10 01:21:30;;;;;;;4.07;2.60;;;15.80;99.90;;;;;;5083131;28;20499;-69
2022/06/10 01:24:04;;;;;;;2.33;2.17;;;15.70;99.90;;;;;;5070175;28;20344;-68
2022/06/10 01:30:11;;;;;;;3.43;2.30;;;15.70;99.90;;;;;;5072595;28;20445;-68
2022/06/10 01:33:06;;;;;;;3.07;2.60;;;15.70;99.90;;;;;;5069220;28;20507;-69
2022/06/10 01:35:53;;;;;;;3.10;2.40;;;15.70;99.90;;;;;;5073075;28;20793;-68
2022/06/10 01:38:25;;;;;;;2.53;2.33;;;15.70;99.90;;;;;;5074580;28;20461;-68
2022/06/10 01:41:03;;;;;;;3.90;2.80;;;15.70;99.90;;;;;;5069230;28;20446;-68
2022/06/10 01:43:37;;;;;;;3.33;2.97;;;15.70;99.90;;;;;;5072008;28;20509;-68
2022/06/10 01:46:15;;;;;;;2.43;2.23;;;15.70;99.90;;;;;;5075724;28;20464;-68
2022/06/10 01:48:48;;;;;;;3.70;3.10;;;15.60;99.90;;;;;;5049600;28;21207;-68
2022/06/10 01:51:42;;;;;;;2.30;2.20;;;15.60;99.90;;;;;;5082198;28;20885;-68
2022/06/10 01:54:32;;;;;;;2.63;2.43;;;15.60;99.90;;;;;;5044037;28;20488;-68
2022/06/10 01:57:05;;;;;;;3.20;2.60;;;15.60;99.90;;;;;;5072754;28;20491;-68
2022/06/10 01:59:37;;;;;;;2.20;2.00;;;15.50;99.90;;;;;;5084200;28;20452;-69
2022/06/10 02:02:10;;;;;;;5.03;2.80;;;15.50;99.90;;;;;;5082115;28;20498;-70
2022/06/10 02:05:00;;;;;;;3.10;2.80;;;15.50;99.90;;;;;;5068862;28;20506;-68
2022/06/10 02:07:38;;;;;;;3.17;2.67;;;15.50;99.90;;;;;;5064703;28;20714;-68
2022/06/10 02:10:24;;;;;;;2.60;2.40;;;15.40;99.90;;;;;;5054933;28;20453;-68
2022/06/10 02:12:56;;;;;;;4.53;3.00;;;15.40;99.90;;;;;;5092830;28;20770;-67
2022/06/10 02:15:30;;;;;;;3.83;2.90;;;15.40;99.90;;;;;;5088243;28;20444;-68
2022/06/10 02:18:16;;;;;;;3.33;3.00;;;15.40;99.90;;;;;;5080454;28;20999;-68
2022/06/10 02:20:49;;;;;;;5.43;2.70;;;15.40;99.90;;;;;;5055923;28;20457;-69
2022/06/10 02:23:20;;;;;;;3.67;2.93;;;15.40;99.90;;;;;;5058351;28;20489;-68
2022/06/10 02:25:50;;;;;;;2.93;2.73;;;15.30;99.90;;;;;;5082091;28;20911;-68
2022/06/10 02:28:21;;;;;;;3.30;2.57;;;15.30;99.90;;;;;;5081268;28;20503;-68
2022/06/10 02:31:02;;;;;;;2.70;2.50;;;15.30;99.90;;;;;;5081932;28;20560;-68
2022/06/10 02:33:29;;;;;;;2.60;2.27;;;15.20;99.90;;;;;;5057933;28;20486;-67
2022/06/10 02:36:02;;;;;;;2.57;2.37;;;15.20;99.90;;;;;;5052280;28;20471;-68
2022/06/10 02:39:12;;;;;;;2.50;2.30;;;15.20;99.90;;;;;;5064502;28;20525;-69
2022/06/10 02:41:46;;;;;;;5.40;3.07;;;15.10;99.90;;;;;;5085482;28;20536;-69
2022/06/10 02:44:42;;;;;;;3.20;2.90;;;15.10;99.90;;;;;;5075682;28;20468;-69
2022/06/10 02:47:26;;;;;;;3.03;2.73;;;15.10;99.90;;;;;;5070247;28;20850;-68
2022/06/10 02:49:52;;;;;;;2.53;2.13;;;15.00;99.90;;;;;;5079003;28;20488;-69
2022/06/10 02:52:21;;;;;;;4.67;3.57;;;15.00;99.90;;;;;;5073515;28;20492;-68
2022/06/10 02:54:47;;;;;;;2.77;2.60;;;14.90;99.90;;;;;;5077111;28;20210;-68
2022/06/10 02:57:20;;;;;;;2.40;2.30;;;14.90;99.90;;;;;;5066444;28;20453;-67
2022/06/10 03:03:00;;;;;;;3.77;3.03;;;14.90;99.90;;;;;;5078915;28;20869;-69
2022/06/10 03:05:53;;;;;;;5.30;3.07;;;14.90;99.90;;;;;;5073205;28;20591;-67
2022/06/10 03:08:31;;;;;;;3.47;2.33;;;14.90;99.90;;;;;;5081964;28;21080;-69
2022/06/10 03:10:57;;;;;;;2.97;2.53;;;14.90;99.90;;;;;;5077744;28;20463;-69
2022/06/10 03:13:57;;;;;;;2.77;2.50;;;14.90;99.90;;;;;;5082075;28;20461;-68
2022/06/10 03:16:32;;;;;;;3.30;2.97;;;14.90;99.90;;;;;;5073206;28;20329;-69
2022/06/10 03:19:30;;;;;;;3.60;2.90;;;14.90;99.90;;;;;;5078244;28;20476;-68
2022/06/10 03:22:30;;;;;;;2.23;2.10;;;14.90;99.90;;;;;;5087269;28;20869;-69
2022/06/10 03:25:13;;;;;;;4.00;2.93;;;14.80;99.90;;;;;;5051887;28;20461;-68
2022/06/10 03:28:10;;;;;;;3.20;2.70;;;14.80;99.90;;;;;;5072931;28;20501;-69
2022/06/10 03:30:48;;;;;;;2.33;2.20;;;14.80;99.90;;;;;;5070317;28;20460;-68
2022/06/10 03:33:28;;;;;;;4.63;3.03;;;14.80;99.90;;;;;;5071575;28;20452;-69
2022/06/10 03:36:01;;;;;;;2.60;2.50;;;14.70;99.90;;;;;;5070337;28;20449;-70
2022/06/10 03:38:28;;;;;;;2.90;2.70;;;14.70;99.90;;;;;;5066989;28;20452;-69
2022/06/10 03:40:58;;;;;;;3.07;2.60;;;14.70;99.90;;;;;;5077887;28;20485;-66
2022/06/10 03:43:25;;;;;;;3.43;3.20;;;14.70;99.90;;;;;;5060631;28;20450;-66
2022/06/10 03:45:57;;;;;;;4.47;3.20;;;14.60;99.90;;;;;;5069707;28;20453;-67
2022/06/10 03:48:25;;;;;;;3.50;3.10;;;14.60;99.90;;;;;;5074355;28;20449;-67
2022/06/10 03:50:51;;;;;;;3.17;2.87;;;14.50;99.90;;;;;;5076981;28;20497;-68
2022/06/10 03:53:21;;;;;;;2.73;2.53;;;14.50;99.90;;;;;;5070875;28;20465;-68
2022/06/10 03:55:47;;;;;;;3.07;2.87;;;14.50;99.90;;;;;;5087357;28;20481;-67
2022/06/10 03:58:14;;;;;;;3.30;3.07;;;14.50;99.90;;;;;;5065205;28;20833;-67
2022/06/10 04:00:40;;;;;;;3.00;2.80;;;14.50;99.90;;;;;;5074889;28;20445;-66
2022/06/10 04:03:06;;;;;;;2.93;2.73;;;14.50;99.90;;;;;;5055535;28;20449;-68
2022/06/10 04:05:32;;;;;;;3.10;2.80;;;14.50;99.90;;;;;;5074546;28;20460;-67
2022/06/10 04:07:58;;;;;;;3.50;3.20;;;14.60;99.90;;;;;;5084113;28;20239;-67
2022/06/10 04:10:26;;;;;;;4.03;3.70;;;14.60;99.90;;;;;;5068187;28;20883;-67
2022/06/10 04:12:52;;;;;;;4.70;3.10;;;14.60;99.90;;;;;;5058565;28;20462;-67
2022/06/10 04:15:18;;;;;;;3.60;3.30;;;14.60;99.90;;;;;;5070119;28;20469;-69
2022/06/10 04:17:46;;;;;;;5.73;3.00;;;14.60;99.90;;;;;;5069263;28;20215;-69
2022/06/10 04:20:19;;;;;;;3.20;2.93;;;14.60;99.90;;;;;;5086601;28;20512;-69
2022/06/10 04:22:46;;;;;;;4.40;3.20;;;14.60;99.90;;;;;;5089830;28;20464;-69
2022/06/10 04:25:12;;;;;;;2.97;2.73;;;14.60;99.90;;;;;;5070133;28;20524;-69
2022/06/10 04:27:39;;;;;;;3.37;2.80;;;14.60;99.90;;;;;;5068494;28;20461;-68
2022/06/10 04:30:06;;;;;;;3.13;2.90;;;14.50;99.90;;;;;;5079248;28;20804;-69
2022/06/10 04:32:32;;;;;;;3.17;2.87;;;14.60;99.90;;;;;;5069013;28;20453;-69
2022/06/10 04:34:58;;;;;;;2.60;2.40;;;14.60;99.90;;;;;;5088294;28;20484;-69
2022/06/10 04:37:25;;;;;;;6.93;2.47;;;14.60;99.90;;;;;;5069871;28;20258;-68
2022/06/10 04:39:50;;;;;;;3.17;2.83;;;14.60;99.90;;;;;;5073933;28;20223;-69
2022/06/10 04:42:16;;;;;;;2.93;2.70;;;14.70;99.90;;;;;;5064189;28;20474;-69
2022/06/10 04:44:42;;;;;;;6.00;2.83;;;14.70;99.90;;;;;;5070212;28;20302;-69
2022/06/10 04:47:09;;;;;;;5.70;3.00;;;14.70;99.90;;;;;;5076312;28;20223;-68
2022/06/10 04:49:36;;;;;;;3.23;2.90;;;14.80;99.90;;;;;;5064743;28;20462;-68
2022/06/10 04:52:03;;;;;;;3.60;3.30;;;14.80;99.90;;;;;;5060309;28;21055;-67
2022/06/10 04:54:29;;;;;;;3.47;2.60;;;14.80;99.90;;;;;;5062847;28;20458;-69
2022/06/10 04:56:55;;;;;;;5.20;2.93;;;14.80;99.90;;;;;;5051516;28;20505;-68
2022/06/10 04:59:20;;;;;;;3.37;3.07;;;14.80;99.90;;;;;;5063961;28;20630;-69
2022/06/10 05:01:46;;;;;;;3.40;2.73;;;14.90;99.90;;;;;;5065692;28;20298;-69
2022/06/10 05:04:12;;;;;;;3.30;3.00;;;14.90;99.90;;;;;;5064506;28;20247;-67
2022/06/10 05:06:38;;;;;;;3.13;2.67;;;14.90;99.90;;;;;;5057258;28;20887;-68
2022/06/10 05:09:04;;;;;;;4.80;2.80;;;14.90;99.90;;;;;;5064422;28;20219;-68
2022/06/10 05:11:30;;;;;;;3.17;2.67;;;15.00;99.90;;;;;;5078575;28;20711;-68
2022/06/10 05:13:56;;;;;;;5.40;3.10;;;15.00;99.90;;;;;;5063685;28;20211;-69
2022/06/10 05:16:22;;;;;;;2.80;2.60;;;15.00;99.90;;;;;;5070983;28;20247;-68
2022/06/10 05:18:48;;;;;;;4.30;3.17;;;15.00;99.90;;;;;;5062005;28;20453;-67
2022/06/10 05:21:14;;;;;;;3.83;3.03;;;15.10;99.90;;;;;;5069843;28;20702;-69
2022/06/10 05:23:41;;;;;;;2.70;2.50;;;15.10;99.90;;;;;;5061779;28;20310;-68
2022/06/10 05:26:08;;;;;;;3.50;3.20;;;15.20;99.90;;;;;;5062450;28;20224;-67
2022/06/10 05:28:34;;;;;;;3.93;3.17;;;15.20;99.90;;;;;;5078630;28;21223;-70
2022/06/10 05:31:00;;;;;;;5.80;3.20;;;15.20;99.90;;;;;;5056262;28;20488;-69
2022/06/10 05:34:44;;;;;;;2.80;2.60;;;15.30;99.90;;;;;;5069293;28;20255;-67
2022/06/10 05:36:11;;;;;;;3.33;3.03;;;15.30;99.90;;;;;;5072934;28;20242;-68
2022/06/10 05:38:36;;;;;;;3.00;2.80;;;15.40;99.90;;;;;;5069949;28;20493;-69
2022/06/10 05:42:04;;;;;;;3.17;2.97;;;15.40;99.90;;;;;;5069626;28;20222;-69
2022/06/10 05:43:48;;;;;;;3.83;2.73;;;15.50;99.90;;;;;;5068996;28;20222;-67
2022/06/10 05:46:14;;;;;;;4.27;2.90;;;15.50;99.90;;;;;;5072623;28;20452;-69
2022/06/10 05:48:40;;;;;;;3.40;2.77;;;15.50;99.90;;;;;;5072192;28;20323;-68
2022/06/10 05:51:06;;;;;;;2.70;2.50;;;15.50;99.90;;;;;;5071856;28;20222;-69
2022/06/10 05:53:31;;;;;;;4.40;3.03;;;15.50;99.90;;;;;;5066221;28;20833;-70
2022/06/10 05:55:57;;;;;;;4.23;3.00;;;15.60;99.90;;;;;;5068021;28;20651;-68
2022/06/10 05:58:23;;;;;;;5.03;3.03;;;15.60;99.90;;;;;;5054365;28;20223;-69
2022/06/10 06:00:48;;;;;;;3.07;2.73;;;15.70;99.90;;;;;;5057163;28;20215;-70
2022/06/10 06:03:14;;;;;;;3.57;2.67;;;15.70;99.90;;;;;;5075613;28;20726;-70
2022/06/10 06:05:39;;;;;;;2.93;2.60;;;15.80;99.90;;;;;;5058579;28;20235;-69
2022/06/10 06:08:05;;;;;;;3.23;3.03;;;15.90;99.90;;;;;;5061027;28;20219;-68
2022/06/10 06:10:31;;;;;;;4.93;2.87;;;16.00;99.90;;;;;;5074328;28;20590;-68
2022/06/10 06:12:57;;;;;;;3.43;2.90;;;16.10;99.90;;;;;;5054044;28;20214;-71
2022/06/10 06:15:24;;;;;;;5.13;3.07;;;16.10;99.90;;;;;;5065160;28;20306;-69
2022/06/10 06:17:51;;;;;;;4.57;2.77;;;16.20;99.90;;;;;;5070447;28;20302;-69
2022/06/10 06:20:17;;;;;;;3.07;2.80;;;16.20;99.90;;;;;;5031104;28;20519;-72
2022/06/10 06:22:42;;;;;;;2.97;2.77;;;16.30;99.90;;;;;;5056894;28;20544;-68
2022/06/10 06:25:13;;;;;;;3.47;2.57;;;16.40;99.90;;;;;;5063127;28;20564;-69
2022/06/10 06:27:39;;;;;;;3.97;2.50;;;16.50;99.90;;;;;;5055248;28;20249;-69
2022/06/10 06:30:05;;;;;;;3.10;2.80;;;16.60;99.90;;;;;;5079873;28;20484;-69
2022/06/10 06:32:31;;;;;;;3.10;2.80;;;16.60;99.90;;;;;;5064741;28;20317;-70
2022/06/10 06:34:56;;;;;;;2.90;2.70;;;16.70;99.90;;;;;;5088663;28;20592;-69
2022/06/10 06:37:22;;;;;;;4.70;2.90;;;16.80;99.90;;;;;;5066720;28;20230;-68
2022/06/10 06:39:48;;;;;;;3.73;3.30;;;16.80;99.90;;;;;;5068832;28;20221;-69
2022/06/10 06:42:14;;;;;;;2.87;2.67;;;16.90;99.90;;;;;;5068880;28;20586;-69
2022/06/10 06:44:54;;;;;;;3.50;2.87;;;17.00;99.90;;;;;;5063377;28;20235;-69
2022/06/10 06:47:20;;;;;;;3.80;3.30;;;17.10;99.90;;;;;;5066420;28;20465;-70
2022/06/10 06:49:45;;;;;;;4.23;2.90;;;17.20;99.90;;;;;;5061292;28;20654;-70
2022/06/10 06:52:11;;;;;;;3.27;2.93;;;17.30;99.90;;;;;;5069823;28;20234;-69
2022/06/10 06:54:37;;;;;;;4.60;3.93;;;17.30;99.90;;;;;;5055635;28;20613;-69
2022/06/10 06:57:05;;;;;;;3.70;3.47;;;17.50;99.90;;;;;;5081944;28;20295;-69
2022/06/10 06:59:32;;;;;;;5.20;2.97;;;17.50;99.90;;;;;;5057559;28;20457;-69
2022/06/10 07:01:58;;;;;;;5.37;3.33;;;17.60;99.90;;;;;;5056927;28;20934;-70
2022/06/10 07:04:24;;;;;;;4.80;3.07;;;17.70;99.90;;;;;;5054944;28;20469;-68
2022/06/10 07:06:50;;;;;;;4.40;4.00;;;17.70;99.90;;;;;;5054398;28;20671;-68
2022/06/10 07:09:16;;;;;;;5.80;3.77;;;17.70;99.90;;;;;;5057112;28;20527;-69
2022/06/10 07:11:41;;;;;;;3.30;3.00;;;17.60;99.90;;;;;;5058268;28;20314;-68
2022/06/10 07:14:07;;;;;;;3.83;3.07;;;17.60;99.90;;;;;;5078979;28;20234;-68
2022/06/10 07:16:33;;;;;;;3.50;3.20;;;17.70;99.90;;;;;;5071961;28;20222;-71
2022/06/10 07:18:59;;;;;;;3.27;2.97;;;17.80;99.90;;;;;;5069730;28;20318;-69
2022/06/10 07:21:27;;;;;;;2.77;2.57;;;17.80;99.90;;;;;;5062009;28;20404;-68
2022/06/10 07:23:53;;;;;;;3.30;3.00;;;17.90;99.90;;;;;;5071508;28;20240;-68
2022/06/10 07:26:19;;;;;;;4.23;3.50;;;18.00;99.90;;;;;;5065500;28;20497;-69
2022/06/10 07:28:44;;;;;;;2.93;2.73;;;18.00;99.90;;;;;;5057500;28;20499;-71
2022/06/10 07:31:11;;;;;;;5.13;3.23;;;18.10;99.90;;;;;;5074671;28;20222;-70
2022/06/10 07:33:36;;;;;;;3.70;3.10;;;18.20;99.90;;;;;;5047757;28;20246;-69
2022/06/10 07:36:06;;;;;;;3.03;2.83;;;18.20;99.90;;;;;;5090617;28;20989;-70
2022/06/10 07:38:32;;;;;;;3.40;2.80;;;18.30;99.90;;;;;;5074430;28;20310;-69
2022/06/10 07:43:43;;;;;;;3.57;3.00;;;18.50;99.90;;;;;;5075469;28;20466;-70
2022/06/10 07:46:12;;;;;;;4.47;2.97;;;18.60;99.90;;;;;;5058894;28;20450;-70
2022/06/10 07:48:38;;;;;;;2.97;2.70;;;18.70;99.90;;;;;;5073347;28;20573;-71
2022/06/10 07:51:04;;;;;;;5.20;3.20;;;18.70;99.90;;;;;;5064096;28;20970;-69
2022/06/10 07:53:30;;;;;;;3.43;2.87;;;18.80;99.90;;;;;;5090939;28;20350;-72
2022/06/10 07:55:56;;;;;;;3.00;2.80;;;19.10;99.90;;;;;;5064622;28;20549;-69
2022/06/10 07:58:24;;;;;;;3.53;2.63;;;19.30;99.90;;;;;;5064043;28;20715;-72
2022/06/10 08:00:51;;;;;;;2.70;2.50;;;19.30;99.90;;;;;;5067821;28;20881;-69
2022/06/10 08:03:17;;;;;;;3.30;2.20;;;19.40;99.90;;;;;;5059201;28;20837;-72
2022/06/10 08:05:43;;;;;;;2.77;2.40;;;19.50;99.90;;;;;;5058479;28;20481;-73
2022/06/10 08:08:15;;;;;;;2.97;2.67;;;19.50;99.90;;;;;;5058746;28;20556;-69
2022/06/10 08:10:41;;;;;;;4.50;2.47;;;19.60;99.90;;;;;;5083564;28;20267;-69
2022/06/10 08:13:06;;;;;;;2.90;2.60;;;19.70;99.90;;;;;;5077664;28;20458;-70
2022/06/10 08:15:33;;;;;;;2.60;2.40;;;19.80;99.90;;;;;;5062707;28;20572;-69
2022/06/10 08:17:59;;;;;;;2.50;2.17;;;19.90;99.90;;;;;;5062820;28;20610;-72
2022/06/10 08:23:24;;;;;;;3.03;2.77;;;20.00;99.90;;;;;;5066533;28;20223;-68
2022/06/10 08:25:50;;;;;;;2.87;2.67;;;20.10;99.90;;;;;;5058358;28;20615;-71
2022/06/10 08:28:17;;;;;;;2.77;2.57;;;20.20;99.90;;;;;;5064597;28;20461;-69
2022/06/10 08:30:42;;;;;;;2.50;2.30;;;20.20;99.90;;;;;;5066533;28;20472;-70
2022/06/10 08:33:08;;;;;;;2.73;2.43;;;20.30;99.90;;;;;;5070658;28;20921;-69
2022/06/10 08:35:36;;;;;;;5.87;2.50;;;20.40;99.90;;;;;;5083905;28;20223;-69
2022/06/10 08:38:04;;;;;;;2.53;2.20;;;20.50;99.90;;;;;;5077378;28;20644;-69
2022/06/10 08:41:00;;;;;;;2.43;2.13;;;20.60;99.90;;;;;;5068013;28;20450;-72
2022/06/10 08:43:43;;;;;;;2.70;2.50;;;20.70;99.90;;;;;;5067944;28;20472;-70
2022/06/10 08:46:35;;;;;;;2.70;2.50;;;20.80;99.90;;;;;;5074484;28;20467;-69
2022/06/10 08:49:24;;;;;;;2.87;2.33;;;20.90;99.90;;;;;;5081689;28;20508;-71
2022/06/10 08:51:56;;;;;;;2.47;2.27;;;21.10;99.90;;;;;;5071687;28;20549;-68
2022/06/10 08:54:36;;;;;;;2.97;2.60;;;21.20;99.90;;;;;;5064606;28;20481;-69
2022/06/10 08:57:11;;;;;;;2.47;2.27;;;21.20;99.90;;;;;;5068698;28;20457;-69
2022/06/10 08:59:45;;;;;;;2.60;2.37;;;21.30;99.90;;;;;;5054078;28;21119;-70
2022/06/10 09:02:14;;;;;;;2.37;2.20;;;21.40;99.90;;;;;;5061136;28;20555;-71
2022/06/10 09:04:52;;;;;;;5.07;2.27;;;21.40;99.90;;;;;;5058230;28;20523;-68
2022/06/10 09:07:25;;;;;;;2.30;2.20;;;21.50;99.90;;;;;;5069860;28;21071;-68
2022/06/10 09:09:51;;;;;;;3.13;2.77;;;21.60;99.90;;;;;;5058281;28;20551;-70
2022/06/10 09:12:48;;;;;;;2.87;2.57;;;21.70;99.90;;;;;;5070782;28;20466;-69
2022/06/10 09:15:17;;;;;;;5.20;3.17;;;21.80;99.90;;;;;;5071055;28;20218;-68
2022/06/10 09:17:50;;;;;;;3.03;2.50;;;22.00;99.90;;;;;;5064171;28;20465;-69
2022/06/10 09:20:35;;;;;;;2.63;2.43;;;22.10;99.90;;;;;;5064541;28;20590;-70
2022/06/10 09:23:25;;;;;;;3.03;2.40;;;22.20;99.90;;;;;;5066354;28;20557;-69
2022/06/10 09:25:56;;;;;;;3.27;2.17;;;22.30;99.90;;;;;;5061100;28;20473;-70
2022/06/10 09:28:22;;;;;;;2.63;2.30;;;22.40;99.90;;;;;;5067702;28;20495;-71
2022/06/10 09:30:57;;;;;;;2.40;2.20;;;22.40;99.90;;;;;;5059758;28;20461;-69
2022/06/10 09:33:49;;;;;;;2.70;2.50;;;22.50;99.90;;;;;;5065691;28;20527;-69
2022/06/10 09:36:23;;;;;;;2.40;2.20;;;22.60;99.90;;;;;;5062167;28;20480;-68
2022/06/10 09:39:02;;;;;;;2.70;2.50;;;22.80;99.90;;;;;;5065402;28;20469;-68
2022/06/10 09:41:41;;;;;;;6.50;2.30;;;22.90;99.90;;;;;;5068089;28;20545;-70
2022/06/10 09:44:54;;;;;;;3.63;2.63;;;23.00;99.90;;;;;;5048069;28;20992;-70
2022/06/10 09:47:30;;;;;;;2.57;2.47;;;23.10;99.90;;;;;;5065407;28;20460;-70
2022/06/10 09:50:13;;;;;;;4.13;2.30;;;23.20;99.90;;;;;;5068018;28;20999;-68
2022/06/10 09:53:05;;;;;;;2.10;2.00;;;23.30;99.90;;;;;;5063928;28;20472;-69
2022/06/10 09:55:48;;;;;;;2.33;2.07;;;23.30;99.90;;;;;;5068757;28;20481;-70
2022/06/10 09:58:38;;;;;;;2.70;2.60;;;23.40;99.90;;;;;;5060914;28;20694;-69
2022/06/10 10:01:34;;;;;;;2.23;2.00;;;23.50;99.90;;;;;;5063447;28;20460;-69
2022/06/10 10:04:17;;;;;;;2.80;2.37;;;23.40;99.90;;;;;;5069957;28;20663;-70
2022/06/10 10:06:52;;;;;;;2.47;2.30;;;23.40;99.90;;;;;;5057427;28;20537;-70
2022/06/10 10:09:36;;;;;;;2.53;2.43;;;23.50;99.90;;;;;;5073102;28;20471;-72
2022/06/10 10:12:08;;;;;;;2.53;2.40;;;23.50;99.90;;;;;;5060492;28;20495;-69
2022/06/10 10:14:45;;;;;;;2.37;2.27;;;23.60;99.90;;;;;;5058697;28;20539;-70
2022/06/10 10:17:36;;;;;;;3.43;2.47;;;23.70;99.90;;;;;;5065918;28;21007;-72
2022/06/10 10:20:19;;;;;;;2.77;2.67;;;23.90;99.90;;;;;;5062341;28;20464;-71
2022/06/10 10:23:00;;;;;;;2.43;2.33;;;24.00;99.90;;;;;;5063391;28;20509;-71
2022/06/10 10:25:27;;;;;;;2.40;2.20;;;24.10;99.90;;;;;;5070870;28;20894;-70
2022/06/10 10:27:54;;;;;;;1.80;1.70;;;24.20;99.90;;;;;;5080372;28;20464;-70
2022/06/10 10:30:35;;;;;;;2.53;2.37;;;24.20;99.90;;;;;;5068602;28;20449;-71
2022/06/10 10:33:08;;;;;;;2.10;1.90;;;24.30;99.90;;;;;;5078607;28;20450;-70
2022/06/10 10:35:37;;;;;;;2.60;2.20;;;24.50;99.90;;;;;;5064141;28;20498;-69
2022/06/10 10:38:25;;;;;;;2.47;2.27;;;24.70;99.90;;;;;;5048864;28;20461;-69
2022/06/10 10:40:51;;;;;;;3.37;2.40;;;24.80;99.90;;;;;;5062021;28;20981;-70
2022/06/10 10:43:23;;;;;;;3.20;2.73;;;24.90;99.70;;;;;;5071386;28;20454;-72
2022/06/10 10:46:00;;;;;;;2.10;2.00;;;25.00;99.90;;;;;;5068711;28;20237;-69
2022/06/10 10:48:33;;;;;;;1.80;1.70;;;25.10;98.80;;;;;;5062966;28;20464;-70
2022/06/10 10:51:20;;;;;;;2.30;2.10;;;25.30;98.60;;;;;;5054772;28;20457;-71
2022/06/10 10:53:49;;;;;;;3.33;2.23;;;25.40;97.00;;;;;;5066420;28;20875;-70
2022/06/10 10:56:16;;;;;;;2.67;2.47;;;25.50;97.20;;;;;;5052670;28;20460;-70
2022/06/10 10:58:53;;;;;;;2.10;2.00;;;25.50;97.70;;;;;;5067625;28;20571;-70
2022/06/10 11:01:51;;;;;;;2.23;2.10;;;25.50;98.30;;;;;;5050158;28;20472;-70
2022/06/10 11:04:16;;;;;;;2.23;2.13;;;25.60;97.30;;;;;;5076018;28;20477;-71
2022/06/10 11:06:42;;;;;;;2.60;2.30;;;25.70;97.50;;;;;;5059040;28;20480;-70
2022/06/10 11:09:16;;;;;;;2.20;2.10;;;25.70;97.40;;;;;;5074353;28;20214;-69
2022/06/10 11:11:43;;;;;;;2.63;2.43;;;25.60;97.60;;;;;;5058195;28;20561;-69
2022/06/10 11:14:37;;;;;;;3.83;2.80;;;25.50;97.00;;;;;;5075069;28;20468;-72
2022/06/10 11:17:15;;;;;;;4.03;2.77;;;25.40;97.40;;;;;;5077975;28;20572;-69
2022/06/10 11:19:45;;;;;;;2.00;1.90;;;25.40;97.20;;;;;;5067485;28;20525;-71
2022/06/10 11:22:16;;;;;;;3.43;2.53;;;25.40;97.30;;;;;;5068170;28;20456;-70
2022/06/10 11:24:45;;;;;;;2.40;2.20;;;25.30;95.20;;;;;;5069885;28;20822;-69
2022/06/10 11:27:23;;;;;;;2.73;2.17;;;25.10;96.10;;;;;;5081104;28;20468;-71
2022/06/10 11:30:02;;;;;;;4.73;3.00;;;25.20;96.40;;;;;;5068112;28;20500;-69
2022/06/10 11:32:40;;;;;;;2.20;2.03;;;25.30;96.40;;;;;;5075722;28;20493;-69
2022/06/10 11:35:31;;;;;;;2.23;1.80;;;25.50;96.70;;;;;;5067847;28;20483;-71
2022/06/10 11:38:21;;;;;;;2.50;2.30;;;25.70;96.80;;;;;;5078769;28;20450;-69
2022/06/10 11:40:46;;;;;;;3.57;2.17;;;25.80;95.90;;;;;;5055054;28;20483;-71
2022/06/10 11:43:22;;;;;;;1.90;1.80;;;26.20;94.60;;;;;;5077052;28;20448;-70
2022/06/10 11:45:51;;;;;;;2.17;2.07;;;26.30;94.50;;;;;;5067271;28;20229;-73
2022/06/10 11:48:37;;;;;;;2.07;1.97;;;26.30;94.00;;;;;;5075974;28;21003;-69
2022/06/10 11:51:09;;;;;;;2.40;1.87;;;26.30;94.20;;;;;;5057528;28;20483;-71
2022/06/10 11:53:58;;;;;;;2.80;1.93;;;26.20;94.50;;;;;;5056056;28;20461;-70
2022/06/10 11:59:57;;;;;;;2.07;1.90;;;26.30;94.70;;;;;;5070012;28;20464;-70
2022/06/10 12:02:34;;;;;;;2.93;2.07;;;26.40;93.80;;;;;;5052209;28;20460;-69
2022/06/10 12:05:05;;;;;;;2.43;2.23;;;26.50;92.00;;;;;;5063385;28;20475;-71
2022/06/10 12:07:33;;;;;;;4.33;1.83;;;26.70;92.70;;;;;;5065217;28;20459;-69
2022/06/10 12:10:05;;;;;;;3.03;2.40;;;26.80;92.90;;;;;;5058551;28;20448;-70
2022/06/10 12:12:37;;;;;;;1.97;1.87;;;26.80;93.60;;;;;;5067245;28;20295;-72
2022/06/10 12:15:24;;;;;;;3.80;2.47;;;26.80;93.60;;;;;;5055156;28;20943;-70
2022/06/10 12:17:54;;;;;;;4.87;2.00;;;26.80;91.40;;;;;;5070432;28;20532;-69
2022/06/10 12:20:46;;;;;;;3.13;1.80;;;26.80;91.20;;;;;;5055274;28;20472;-70
2022/06/10 12:23:36;;;;;;;1.83;1.70;;;26.90;90.90;;;;;;5077692;28;20219;-70
2022/06/10 12:26:28;;;;;;;1.87;1.77;;;26.90;92.00;;;;;;5064326;28;20455;-69
2022/06/10 12:29:08;;;;;;;3.10;1.90;;;26.80;92.40;;;;;;5066601;28;20668;-69
2022/06/10 12:32:04;;;;;;;1.70;1.60;;;26.90;92.20;;;;;;5070500;28;20476;-71
2022/06/10 12:35:00;;;;;;;3.23;2.00;;;26.80;92.10;;;;;;5066079;28;20885;-69
2022/06/10 12:37:47;;;;;;;1.90;1.80;;;26.80;92.10;;;;;;5066901;28;20477;-73
2022/06/10 12:40:36;;;;;;;2.17;1.80;;;26.80;92.20;;;;;;5069758;28;20445;-71
2022/06/10 12:43:14;;;;;;;2.00;1.90;;;26.70;92.00;;;;;;5048549;28;20859;-70
2022/06/10 12:45:50;;;;;;;1.80;1.70;;;26.60;91.60;;;;;;5064914;28;20475;-72
2022/06/10 12:48:21;;;;;;;1.90;1.80;;;26.50;91.70;;;;;;5067391;28;20498;-73
2022/06/10 12:51:01;;;;;;;2.00;1.80;;;26.50;92.20;;;;;;5069197;28;20611;-70
2022/06/10 12:53:38;;;;;;;5.83;2.93;;;26.50;92.30;;;;;;5062195;28;20468;-69
2022/06/10 12:56:33;;;;;;;2.93;2.07;;;26.50;92.30;;;;;;5065645;28;20452;-70
2022/06/10 12:59:08;;;;;;;2.10;2.00;;;26.50;91.70;;;;;;5050171;28;20465;-69
2022/06/10 13:01:34;;;;;;;4.30;2.10;;;26.40;92.00;;;;;;5072379;28;20455;-71
2022/06/10 13:04:01;;;;;;;2.67;1.93;;;26.30;91.90;;;;;;5060564;28;20825;-71
2022/06/10 13:06:43;;;;;;;5.03;2.10;;;26.30;92.00;;;;;;5054816;28;20446;-72
2022/06/10 13:09:12;;;;;;;2.30;2.10;;;26.30;92.10;;;;;;5079508;28;20456;-71
2022/06/10 13:11:37;;;;;;;2.93;2.37;;;26.30;92.10;;;;;;5069286;28;20480;-69
2022/06/10 13:14:09;;;;;;;2.80;2.00;;;26.30;91.80;;;;;;5083739;28;20456;-70
2022/06/10 13:16:36;;;;;;;2.27;2.00;;;26.20;92.00;;;;;;5066047;28;20313;-72
2022/06/10 13:19:03;;;;;;;2.03;1.73;;;26.20;91.40;;;;;;5087750;28;20917;-71
2022/06/10 13:21:32;;;;;;;2.13;1.67;;;26.20;91.80;;;;;;5070262;28;20999;-71
2022/06/10 13:24:00;;;;;;;5.90;2.23;;;26.20;91.90;;;;;;5050970;28;20549;-70
2022/06/10 13:26:28;;;;;;;4.20;2.40;;;26.10;91.70;;;;;;5067069;28;20472;-70
2022/06/10 13:29:05;;;;;;;2.30;1.97;;;26.10;91.80;;;;;;5058683;28;20477;-72
2022/06/10 13:31:30;;;;;;;3.40;2.30;;;26.20;91.90;;;;;;5070284;28;20557;-69
2022/06/10 13:33:57;;;;;;;4.03;2.30;;;26.20;91.90;;;;;;5058185;28;20528;-70